Time;durP1;ratioP1;P1;durP2;ratioP2;P2;SDS_P1;SDS_P2;PMS_P1;PMS_P2;Temp;Humidity;BMP_temperature;BMP_pressure;BME280_temperature;BME280_humidity;BME280_pressure;Samples;Min_cycle;Max_cycle;Signal;HPM_P1;HPM_P2
2023/10/05 00:01:05;;;;;;;11.53;5.20;;;12.80;99.90;;;;;;4935345;29;20670;-80
2023/10/05 00:03:32;;;;;;;16.20;5.77;;;12.70;99.90;;;;;;4933581;29;20231;-79
2023/10/05 00:06:05;;;;;;;13.53;5.53;;;12.70;99.90;;;;;;4933836;29;20642;-78
2023/10/05 00:08:35;;;;;;;13.10;5.23;;;12.60;99.90;;;;;;4926986;29;20227;-78
2023/10/05 00:11:06;;;;;;;15.37;5.20;;;12.50;99.90;;;;;;4941434;29;20250;-79
2023/10/05 00:13:34;;;;;;;10.87;4.70;;;12.60;99.90;;;;;;4941470;29;20238;-78
2023/10/05 00:16:02;;;;;;;11.80;4.67;;;12.70;99.90;;;;;;4932831;29;20290;-78
2023/10/05 00:18:29;;;;;;;13.30;4.70;;;12.70;99.90;;;;;;4930702;29;20223;-80
2023/10/05 00:20:59;;;;;;;12.27;4.83;;;12.60;99.90;;;;;;4932472;29;20210;-78
2023/10/05 00:23:29;;;;;;;10.27;4.70;;;12.70;99.90;;;;;;4940330;29;20199;-78
2023/10/05 00:25:56;;;;;;;14.33;4.67;;;12.60;99.90;;;;;;4940666;29;20267;-79
2023/10/05 00:28:26;;;;;;;12.17;4.03;;;12.70;99.90;;;;;;4939191;29;20318;-78
2023/10/05 00:30:55;;;;;;;13.73;4.30;;;12.60;99.90;;;;;;4942192;29;20203;-78
2023/10/05 00:33:23;;;;;;;10.50;4.40;;;12.60;99.90;;;;;;4937723;29;20247;-79
2023/10/05 00:35:50;;;;;;;11.07;4.77;;;12.70;99.90;;;;;;4936134;29;20277;-79
2023/10/05 00:38:18;;;;;;;15.37;5.30;;;12.70;99.90;;;;;;4938282;29;20710;-77
2023/10/05 00:40:56;;;;;;;10.33;4.93;;;12.70;99.90;;;;;;4937263;29;20261;-79
2023/10/05 00:43:25;;;;;;;9.90;3.97;;;12.80;99.90;;;;;;4937993;29;20207;-79
2023/10/05 00:45:52;;;;;;;16.77;4.20;;;12.70;99.90;;;;;;4936270;29;20207;-78
2023/10/05 00:48:30;;;;;;;16.50;3.97;;;12.70;99.90;;;;;;4938558;29;20235;-80
2023/10/05 00:50:59;;;;;;;11.30;3.70;;;12.70;99.90;;;;;;4936491;29;20687;-78
2023/10/05 00:53:28;;;;;;;11.80;3.83;;;12.70;99.90;;;;;;4932729;29;20235;-79
2023/10/05 00:56:07;;;;;;;11.33;4.10;;;12.70;99.90;;;;;;4933035;29;20211;-77
2023/10/05 00:58:42;;;;;;;10.60;4.10;;;12.60;99.90;;;;;;4929126;29;20234;-77
2023/10/05 01:01:15;;;;;;;11.70;3.93;;;12.50;99.90;;;;;;4937798;29;20589;-78
2023/10/05 01:03:59;;;;;;;12.73;4.13;;;12.60;99.90;;;;;;4940595;29;20195;-78
2023/10/05 01:06:32;;;;;;;10.83;4.00;;;12.70;99.90;;;;;;4938391;29;20638;-79
2023/10/05 01:09:03;;;;;;;10.23;4.20;;;12.70;99.90;;;;;;4939298;29;20222;-78
2023/10/05 01:11:42;;;;;;;10.17;4.20;;;12.70;99.90;;;;;;4941670;29;20203;-80
2023/10/05 01:14:09;;;;;;;14.10;4.20;;;12.70;99.90;;;;;;4941930;29;20229;-78
2023/10/05 01:16:36;;;;;;;9.27;4.57;;;12.70;99.90;;;;;;4938216;29;20214;-78
2023/10/05 01:19:07;;;;;;;13.00;4.50;;;12.70;99.90;;;;;;4937236;29;20406;-79
2023/10/05 01:21:35;;;;;;;10.70;4.30;;;12.70;99.90;;;;;;4941690;29;20242;-78
2023/10/05 01:24:04;;;;;;;17.70;4.90;;;12.80;99.90;;;;;;4933746;29;20204;-79
2023/10/05 01:26:34;;;;;;;13.90;5.27;;;12.90;99.90;;;;;;4929382;29;20231;-79
2023/10/05 01:29:01;;;;;;;12.93;4.37;;;13.10;99.90;;;;;;4933971;29;20262;-77
2023/10/05 01:31:29;;;;;;;11.20;4.90;;;13.20;99.90;;;;;;4942219;29;20234;-79
2023/10/05 01:33:58;;;;;;;12.70;4.23;;;13.30;99.90;;;;;;4941003;29;20687;-78
2023/10/05 01:36:25;;;;;;;11.80;4.40;;;13.30;99.90;;;;;;4935444;29;20199;-79
2023/10/05 01:38:54;;;;;;;12.80;4.13;;;13.30;99.90;;;;;;4938141;29;20233;-79
2023/10/05 01:41:22;;;;;;;12.57;4.20;;;13.40;99.90;;;;;;4941348;29;20207;-79
2023/10/05 01:43:51;;;;;;;11.50;4.30;;;13.40;99.90;;;;;;4938636;29;20226;-79
2023/10/05 01:46:18;;;;;;;9.90;3.80;;;13.40;99.90;;;;;;4940556;29;20290;-78
2023/10/05 01:48:45;;;;;;;11.43;3.87;;;13.40;99.90;;;;;;4939084;29;20274;-79
2023/10/05 01:51:14;;;;;;;10.93;3.57;;;13.30;99.90;;;;;;4933801;29;20279;-78
2023/10/05 01:53:42;;;;;;;11.07;3.90;;;13.30;99.90;;;;;;4938129;29;20816;-78
2023/10/05 01:56:20;;;;;;;12.20;4.40;;;13.40;99.90;;;;;;4939350;29;20211;-77
2023/10/05 01:58:50;;;;;;;11.23;3.80;;;13.30;99.90;;;;;;4937251;29;20333;-77
2023/10/05 02:01:20;;;;;;;10.77;4.10;;;13.40;99.90;;;;;;4936612;29;20221;-78
2023/10/05 02:03:48;;;;;;;10.83;4.30;;;13.40;99.90;;;;;;4935918;29;20217;-77
2023/10/05 02:06:16;;;;;;;10.37;3.97;;;13.40;99.90;;;;;;4933509;29;20626;-77
2023/10/05 02:08:43;;;;;;;13.87;4.90;;;13.50;99.90;;;;;;4935213;29;20226;-77
2023/10/05 02:11:09;;;;;;;17.70;6.60;;;13.50;99.90;;;;;;4936519;29;20286;-76
2023/10/05 02:13:37;;;;;;;14.23;4.93;;;13.60;99.90;;;;;;4930512;29;20203;-79
2023/10/05 02:16:13;;;;;;;13.47;5.27;;;13.50;99.90;;;;;;4938467;29;20207;-77
2023/10/05 02:18:40;;;;;;;16.10;5.23;;;13.50;99.90;;;;;;4938012;29;20226;-77
2023/10/05 02:21:08;;;;;;;13.40;5.53;;;13.50;99.90;;;;;;4942486;29;20203;-78
2023/10/05 02:23:40;;;;;;;11.10;4.93;;;13.50;99.90;;;;;;4938888;29;20263;-79
2023/10/05 02:26:10;;;;;;;13.53;4.77;;;13.60;99.90;;;;;;4941235;29;20679;-79
2023/10/05 02:28:39;;;;;;;18.07;5.70;;;13.50;99.90;;;;;;4941672;29;20231;-79
2023/10/05 02:31:13;;;;;;;15.57;5.07;;;13.50;99.90;;;;;;4933767;29;20217;-78
2023/10/05 02:33:40;;;;;;;11.70;5.27;;;13.60;99.90;;;;;;4931466;29;20211;-78
2023/10/05 02:36:11;;;;;;;13.83;4.70;;;13.50;99.90;;;;;;4933817;29;20242;-78
2023/10/05 02:38:44;;;;;;;12.77;4.33;;;13.50;99.90;;;;;;4940874;29;20298;-79
2023/10/05 02:41:12;;;;;;;13.87;5.47;;;14.00;99.90;;;;;;4935263;29;20271;-79
2023/10/05 02:43:41;;;;;;;13.43;4.63;;;13.50;99.90;;;;;;4939740;29;20231;-78
2023/10/05 02:46:10;;;;;;;10.33;4.43;;;13.60;99.90;;;;;;4941203;29;20219;-79
2023/10/05 02:48:39;;;;;;;12.17;5.07;;;13.70;99.90;;;;;;4943377;29;20258;-79
2023/10/05 02:51:07;;;;;;;10.13;4.73;;;13.70;99.90;;;;;;4936270;29;20212;-79
2023/10/05 02:53:41;;;;;;;11.90;4.30;;;13.70;99.90;;;;;;4944009;29;20206;-79
2023/10/05 02:56:27;;;;;;;12.23;4.53;;;13.80;99.90;;;;;;4942886;29;20240;-79
2023/10/05 02:58:56;;;;;;;20.00;5.70;;;13.80;99.90;;;;;;4943794;29;20231;-78
2023/10/05 03:01:24;;;;;;;12.70;4.30;;;13.80;99.90;;;;;;4942672;29;20214;-79
2023/10/05 03:03:52;;;;;;;8.83;4.43;;;13.90;99.90;;;;;;4933477;29;20574;-79
2023/10/05 03:06:22;;;;;;;9.03;4.10;;;13.80;99.90;;;;;;4940011;29;20294;-78
2023/10/05 03:08:53;;;;;;;11.77;4.07;;;13.80;99.90;;;;;;4935427;29;20259;-79
2023/10/05 03:11:20;;;;;;;13.77;5.10;;;13.90;99.90;;;;;;4945265;29;20274;-79
2023/10/05 03:13:47;;;;;;;11.27;4.13;;;13.90;99.90;;;;;;4945625;29;20195;-78
2023/10/05 03:16:16;;;;;;;12.07;4.30;;;13.90;99.90;;;;;;4944092;29;20290;-77
2023/10/05 03:18:48;;;;;;;12.50;5.20;;;13.90;99.90;;;;;;4940832;29;20321;-79
2023/10/05 03:21:17;;;;;;;8.53;4.10;;;13.90;99.90;;;;;;4928495;29;20199;-79
2023/10/05 03:23:45;;;;;;;10.30;4.17;;;13.90;99.90;;;;;;4938059;29;20222;-79
2023/10/05 03:26:17;;;;;;;12.80;4.13;;;13.90;99.90;;;;;;4939866;29;20204;-78
2023/10/05 03:28:44;;;;;;;9.03;4.27;;;13.90;99.90;;;;;;4932070;29;20235;-78
2023/10/05 03:31:19;;;;;;;6.53;3.00;;;13.90;99.90;;;;;;4942791;29;20624;-79
2023/10/05 03:33:51;;;;;;;9.93;3.37;;;13.90;99.90;;;;;;4944259;29;20277;-78
2023/10/05 03:36:19;;;;;;;11.88;3.70;;;13.80;99.90;;;;;;4936036;29;20243;-79
2023/10/05 03:38:55;;;;;;;11.30;3.97;;;13.80;99.90;;;;;;4943981;29;20235;-79
2023/10/05 03:41:25;;;;;;;11.07;3.30;;;13.80;99.90;;;;;;4935948;29;20288;-79
2023/10/05 03:43:52;;;;;;;8.43;2.93;;;13.80;99.90;;;;;;4945967;29;20207;-78
2023/10/05 03:46:19;;;;;;;12.10;3.17;;;13.90;99.90;;;;;;4941235;29;20208;-78
2023/10/05 03:48:48;;;;;;;10.10;2.97;;;14.00;99.90;;;;;;4938801;29;20234;-79
2023/10/05 03:51:16;;;;;;;8.13;3.37;;;14.00;99.90;;;;;;4942947;29;20207;-79
2023/10/05 03:53:48;;;;;;;10.27;3.27;;;14.10;99.90;;;;;;4938903;29;20230;-77
2023/10/05 03:56:18;;;;;;;8.07;2.80;;;14.00;99.90;;;;;;4944871;29;20780;-80
2023/10/05 03:58:46;;;;;;;11.23;3.17;;;14.00;99.90;;;;;;4938026;29;20322;-78
2023/10/05 04:01:13;;;;;;;8.17;4.10;;;14.00;99.90;;;;;;4943261;29;20226;-79
2023/10/05 04:03:40;;;;;;;7.80;3.70;;;14.10;99.90;;;;;;4939986;29;20211;-78
2023/10/05 04:06:17;;;;;;;7.50;3.37;;;14.00;99.90;;;;;;4942450;29;20206;-78
2023/10/05 04:08:46;;;;;;;10.43;3.13;;;14.10;99.90;;;;;;4944461;29;20274;-79
2023/10/05 04:11:13;;;;;;;15.13;4.57;;;14.10;99.90;;;;;;4943562;29;20213;-79
2023/10/05 04:13:40;;;;;;;10.50;4.27;;;14.10;99.90;;;;;;4937717;29;20698;-78
2023/10/05 04:16:08;;;;;;;10.50;3.93;;;14.00;99.90;;;;;;4939299;29;20847;-77
2023/10/05 04:18:35;;;;;;;9.50;4.43;;;14.00;99.90;;;;;;4937642;29;20263;-79
2023/10/05 04:21:02;;;;;;;9.23;4.10;;;13.90;99.90;;;;;;4931096;29;20211;-79
2023/10/05 04:23:30;;;;;;;11.83;4.53;;;13.90;99.90;;;;;;4928636;29;20217;-79
2023/10/05 04:25:57;;;;;;;7.43;4.23;;;13.80;99.90;;;;;;4934609;29;20223;-78
2023/10/05 04:28:32;;;;;;;12.57;4.83;;;13.80;99.90;;;;;;4940497;29;20613;-77
2023/10/05 04:30:59;;;;;;;12.60;5.17;;;13.80;99.90;;;;;;4942109;29;20202;-78
2023/10/05 04:33:27;;;;;;;14.10;5.70;;;13.80;99.90;;;;;;4931698;29;20301;-79
2023/10/05 04:35:55;;;;;;;17.10;7.20;;;13.80;99.90;;;;;;4940036;29;20231;-77
2023/10/05 04:38:25;;;;;;;15.60;6.60;;;13.70;99.90;;;;;;4940848;29;20238;-79
2023/10/05 04:40:54;;;;;;;13.03;5.23;;;13.70;99.90;;;;;;4941380;29;20218;-78
2023/10/05 04:43:21;;;;;;;11.87;5.53;;;13.80;99.90;;;;;;4933385;29;20215;-80
2023/10/05 04:45:50;;;;;;;9.60;5.10;;;13.70;99.90;;;;;;4929103;29;20573;-79
2023/10/05 04:48:18;;;;;;;10.43;5.43;;;13.70;99.90;;;;;;4935121;29;20317;-77
2023/10/05 04:50:50;;;;;;;14.03;6.83;;;13.70;99.90;;;;;;4929054;29;20206;-78
2023/10/05 04:53:20;;;;;;;13.33;6.53;;;13.70;99.90;;;;;;4935302;29;20298;-77
2023/10/05 04:55:47;;;;;;;11.97;6.20;;;13.70;99.90;;;;;;4933903;29;20223;-78
2023/10/05 04:58:30;;;;;;;14.85;7.32;;;13.60;99.90;;;;;;4939566;29;20227;-79
2023/10/05 05:01:15;;;;;;;16.37;7.80;;;13.60;99.90;;;;;;4948146;29;20207;-78
2023/10/05 05:03:56;;;;;;;12.80;7.00;;;13.60;99.90;;;;;;4934899;29;20198;-78
2023/10/05 05:06:22;;;;;;;15.90;7.90;;;13.60;99.90;;;;;;4931298;29;20660;-77
2023/10/05 05:08:50;;;;;;;10.53;7.20;;;13.50;99.90;;;;;;4939922;29;20278;-78
2023/10/05 05:11:20;;;;;;;15.43;7.40;;;13.50;99.90;;;;;;4938628;29;20207;-78
2023/10/05 05:13:49;;;;;;;17.03;8.10;;;13.40;99.90;;;;;;4938321;29;20207;-78
2023/10/05 05:16:16;;;;;;;14.97;7.73;;;13.50;99.90;;;;;;4929798;29;20229;-79
2023/10/05 05:18:43;;;;;;;13.33;8.37;;;13.50;99.90;;;;;;4927915;29;20242;-77
2023/10/05 05:21:11;;;;;;;18.03;8.83;;;13.40;99.90;;;;;;4930489;29;20263;-78
2023/10/05 05:23:39;;;;;;;11.90;8.37;;;13.50;99.90;;;;;;4935511;29;20737;-78
2023/10/05 05:26:10;;;;;;;14.77;9.13;;;13.50;99.90;;;;;;4938368;29;20234;-79
2023/10/05 05:28:38;;;;;;;14.67;9.00;;;13.40;99.90;;;;;;4939805;29;20222;-78
2023/10/05 05:31:11;;;;;;;14.70;9.23;;;13.60;99.90;;;;;;4941000;29;20202;-79
2023/10/05 05:33:39;;;;;;;18.03;9.40;;;13.50;99.90;;;;;;4930077;29;20237;-78
2023/10/05 05:36:10;;;;;;;14.10;9.50;;;13.50;99.90;;;;;;4937274;29;20298;-79
2023/10/05 05:38:38;;;;;;;15.33;9.00;;;13.60;99.90;;;;;;4932829;29;20230;-79
2023/10/05 05:41:11;;;;;;;18.87;9.57;;;13.60;99.90;;;;;;4934170;29;20213;-79
2023/10/05 05:43:39;;;;;;;12.27;8.10;;;13.50;99.90;;;;;;4935255;29;20207;-78
2023/10/05 05:46:12;;;;;;;14.30;9.17;;;13.50;99.90;;;;;;4933916;29;20288;-78
2023/10/05 05:48:40;;;;;;;17.10;8.17;;;13.50;99.90;;;;;;4929866;29;20234;-79
2023/10/05 05:51:13;;;;;;;12.70;8.13;;;13.50;99.90;;;;;;4933814;29;20706;-78
2023/10/05 05:53:41;;;;;;;11.17;6.87;;;13.50;99.90;;;;;;4931727;29;20199;-78
2023/10/05 05:56:08;;;;;;;10.37;5.83;;;13.50;99.90;;;;;;4939451;29;20227;-78
2023/10/05 05:58:37;;;;;;;11.77;5.90;;;13.50;99.90;;;;;;4937844;29;20250;-78
2023/10/05 06:01:04;;;;;;;13.60;5.87;;;13.50;99.90;;;;;;4933850;29;20222;-78
2023/10/05 06:03:32;;;;;;;8.47;5.60;;;13.50;99.90;;;;;;4935153;29;20216;-79
2023/10/05 06:06:00;;;;;;;10.20;5.87;;;13.50;99.90;;;;;;4936763;29;20211;-78
2023/10/05 06:08:27;;;;;;;10.27;5.20;;;13.40;99.90;;;;;;4934160;29;20243;-78
2023/10/05 06:10:56;;;;;;;7.17;5.13;;;13.50;99.90;;;;;;4937939;29;20199;-78
2023/10/05 06:13:24;;;;;;;10.83;5.43;;;13.50;99.90;;;;;;4937483;29;20216;-78
2023/10/05 06:15:50;;;;;;;9.43;5.23;;;13.60;99.90;;;;;;4936287;29;20245;-78
2023/10/05 06:18:17;;;;;;;7.27;4.47;;;13.60;99.90;;;;;;4939321;29;20262;-78
2023/10/05 06:20:47;;;;;;;10.50;4.90;;;13.70;99.90;;;;;;4933274;28;20203;-79
2023/10/05 06:23:13;;;;;;;10.70;5.27;;;13.70;99.90;;;;;;4927915;29;20211;-79
2023/10/05 06:25:40;;;;;;;7.67;5.10;;;13.80;99.90;;;;;;4932827;29;20287;-78
2023/10/05 06:28:08;;;;;;;9.90;5.03;;;13.80;99.90;;;;;;4926799;29;20235;-78
2023/10/05 06:30:36;;;;;;;10.57;4.77;;;13.90;99.90;;;;;;4936705;29;20211;-78
2023/10/05 06:33:03;;;;;;;10.90;4.50;;;13.80;99.90;;;;;;4934771;29;20234;-77
2023/10/05 06:35:32;;;;;;;8.57;4.67;;;13.80;99.90;;;;;;4937150;29;20219;-77
2023/10/05 06:38:01;;;;;;;11.67;4.30;;;13.70;99.90;;;;;;4937201;29;20715;-78
2023/10/05 06:40:29;;;;;;;9.97;4.30;;;13.70;99.90;;;;;;4934388;29;20209;-79
2023/10/05 06:42:57;;;;;;;9.53;5.43;;;13.70;99.90;;;;;;4929920;29;20211;-78
2023/10/05 06:45:24;;;;;;;8.50;4.50;;;13.60;99.90;;;;;;4942934;29;20204;-80
2023/10/05 06:47:51;;;;;;;9.43;4.77;;;13.60;99.90;;;;;;4929042;29;20204;-77
2023/10/05 06:50:21;;;;;;;6.50;4.13;;;13.70;99.90;;;;;;4933209;29;20218;-78
2023/10/05 06:52:48;;;;;;;10.87;5.40;;;13.80;99.90;;;;;;4935323;29;20686;-77
2023/10/05 06:55:18;;;;;;;7.10;5.00;;;13.70;99.90;;;;;;4935269;29;20254;-77
2023/10/05 06:57:46;;;;;;;8.50;5.17;;;13.70;99.90;;;;;;4929292;29;20617;-78
2023/10/05 07:00:16;;;;;;;8.40;6.00;;;13.80;99.90;;;;;;4945105;29;20289;-78
2023/10/05 07:02:44;;;;;;;11.03;6.73;;;13.90;99.90;;;;;;4932575;29;20246;-79
2023/10/05 07:05:12;;;;;;;11.10;7.87;;;13.90;99.90;;;;;;4936039;29;20207;-78
2023/10/05 07:07:40;;;;;;;13.13;8.70;;;13.90;99.90;;;;;;4935634;29;20579;-79
2023/10/05 07:10:09;;;;;;;15.23;9.30;;;13.90;99.90;;;;;;4935602;29;20217;-79
2023/10/05 07:12:41;;;;;;;14.13;9.70;;;13.90;99.90;;;;;;4936520;29;20210;-79
2023/10/05 07:15:09;;;;;;;16.63;9.00;;;14.00;99.90;;;;;;4937339;29;20235;-80
2023/10/05 07:17:37;;;;;;;16.07;9.87;;;14.00;99.90;;;;;;4938435;29;20203;-80
2023/10/05 07:20:04;;;;;;;16.40;9.43;;;14.10;99.90;;;;;;4933593;29;20226;-79
2023/10/05 07:22:31;;;;;;;15.37;10.30;;;14.10;99.90;;;;;;4936422;29;20309;-78
2023/10/05 07:24:59;;;;;;;14.87;9.70;;;14.20;99.90;;;;;;4942819;29;20214;-78
2023/10/05 07:27:25;;;;;;;18.60;11.03;;;14.30;99.90;;;;;;4935534;29;20203;-79
2023/10/05 07:29:54;;;;;;;13.17;10.23;;;14.60;99.90;;;;;;4944214;29;20227;-79
2023/10/05 07:32:20;;;;;;;17.60;9.90;;;14.70;99.90;;;;;;4941003;29;20211;-79
2023/10/05 07:34:47;;;;;;;16.52;9.18;;;14.60;99.90;;;;;;4944721;29;20206;-80
2023/10/05 07:37:14;;;;;;;13.88;8.95;;;14.50;99.90;;;;;;4952872;29;20237;-79
2023/10/05 07:39:42;;;;;;;14.40;9.52;;;14.50;99.90;;;;;;4941308;29;20226;-78
2023/10/05 07:42:09;;;;;;;19.00;9.23;;;14.50;99.90;;;;;;4949143;29;20207;-78
2023/10/05 07:44:37;;;;;;;13.68;8.45;;;14.60;99.90;;;;;;4941449;29;20207;-78
2023/10/05 07:47:06;;;;;;;13.90;8.45;;;14.60;99.90;;;;;;4942297;29;20209;-78
2023/10/05 07:49:34;;;;;;;16.42;8.80;;;14.70;99.90;;;;;;4933440;29;20257;-79
2023/10/05 07:52:02;;;;;;;11.40;8.40;;;14.70;99.90;;;;;;4942504;29;20281;-78
2023/10/05 07:54:31;;;;;;;13.20;8.13;;;14.70;99.90;;;;;;4935154;29;20227;-78
2023/10/05 07:56:58;;;;;;;16.35;8.43;;;14.60;99.90;;;;;;4942502;29;20237;-79
2023/10/05 07:59:25;;;;;;;13.67;9.03;;;14.70;99.90;;;;;;4941360;29;20637;-78
2023/10/05 08:01:53;;;;;;;14.18;8.45;;;14.70;99.90;;;;;;4942250;29;20199;-79
2023/10/05 08:04:22;;;;;;;14.63;10.43;;;14.80;99.90;;;;;;4943807;29;20207;-80
2023/10/05 08:06:49;;;;;;;14.80;8.93;;;14.80;99.90;;;;;;4943198;29;20207;-79
2023/10/05 08:09:16;;;;;;;16.42;8.57;;;14.90;99.90;;;;;;4942660;29;20231;-79
2023/10/05 08:11:43;;;;;;;13.07;8.23;;;14.90;99.90;;;;;;4934459;29;20276;-79
2023/10/05 08:14:11;;;;;;;13.13;8.10;;;14.80;99.90;;;;;;4941088;29;20278;-79
2023/10/05 08:16:38;;;;;;;16.55;9.60;;;14.90;99.90;;;;;;4935743;29;20302;-80
2023/10/05 08:19:06;;;;;;;14.43;8.15;;;14.90;99.90;;;;;;4942857;29;20231;-80
2023/10/05 08:21:34;;;;;;;13.57;8.27;;;15.00;99.90;;;;;;4934974;29;20202;-80
2023/10/05 08:24:02;;;;;;;16.52;8.45;;;15.10;99.90;;;;;;4936486;29;20262;-78
2023/10/05 08:26:29;;;;;;;13.17;7.60;;;15.00;99.90;;;;;;4942040;29;20199;-78
2023/10/05 08:28:57;;;;;;;11.73;7.65;;;15.10;99.90;;;;;;4937607;29;20225;-79
2023/10/05 08:31:24;;;;;;;13.05;8.27;;;15.10;99.90;;;;;;4939811;29;20211;-78
2023/10/05 08:33:52;;;;;;;13.00;8.48;;;15.00;99.90;;;;;;4936148;29;20211;-79
2023/10/05 08:36:19;;;;;;;12.82;8.30;;;15.20;99.90;;;;;;4941185;29;20222;-79
2023/10/05 08:38:48;;;;;;;15.40;8.00;;;15.10;99.90;;;;;;4930815;29;20245;-79
2023/10/05 08:41:26;;;;;;;13.57;8.20;;;15.30;99.90;;;;;;4935273;29;20231;-79
2023/10/05 08:43:55;;;;;;;12.25;8.30;;;15.40;99.90;;;;;;4934566;29;20230;-77
2023/10/05 08:46:23;;;;;;;15.95;8.07;;;15.50;99.90;;;;;;4939112;29;20206;-78
2023/10/05 08:48:49;;;;;;;16.17;8.30;;;15.50;99.90;;;;;;4934789;29;20230;-77
2023/10/05 08:51:16;;;;;;;13.60;7.82;;;15.50;99.90;;;;;;4934859;29;20203;-79
2023/10/05 08:53:48;;;;;;;11.20;7.75;;;15.70;99.90;;;;;;4934468;29;20207;-78
2023/10/05 08:56:17;;;;;;;13.38;8.25;;;15.80;99.90;;;;;;4939223;29;20647;-79
2023/10/05 08:58:46;;;;;;;12.60;7.57;;;15.80;99.90;;;;;;4928682;29;20231;-79
2023/10/05 09:01:27;;;;;;;11.10;7.80;;;16.00;99.90;;;;;;4938955;29;20213;-79
2023/10/05 09:04:01;;;;;;;11.27;7.32;;;16.00;99.90;;;;;;4931962;29;20203;-79
2023/10/05 09:06:30;;;;;;;12.48;8.13;;;16.10;99.90;;;;;;4935375;29;20199;-78
2023/10/05 09:09:07;;;;;;;11.45;7.15;;;16.20;99.90;;;;;;4929073;29;20637;-78
2023/10/05 09:11:35;;;;;;;13.25;7.63;;;16.40;99.90;;;;;;4932267;29;20293;-79
2023/10/05 09:14:13;;;;;;;10.30;6.70;;;16.40;99.90;;;;;;4937325;29;20230;-79
2023/10/05 09:16:43;;;;;;;14.02;6.95;;;16.60;99.90;;;;;;4934336;29;20695;-79
2023/10/05 09:19:15;;;;;;;12.57;7.20;;;16.70;99.90;;;;;;4942133;29;20231;-79
2023/10/05 09:21:50;;;;;;;13.73;6.90;;;16.70;99.90;;;;;;4939407;29;20207;-79
2023/10/05 09:24:21;;;;;;;14.57;6.88;;;16.60;99.90;;;;;;4936431;29;20210;-78
2023/10/05 09:26:54;;;;;;;10.52;6.43;;;16.70;99.90;;;;;;4937794;29;20332;-79
2023/10/05 09:29:23;;;;;;;11.13;5.53;;;16.80;99.90;;;;;;4942656;29;20262;-78
2023/10/05 09:31:53;;;;;;;8.63;5.40;;;16.60;99.90;;;;;;4938615;29;20258;-79
2023/10/05 09:34:37;;;;;;;9.68;4.88;;;16.40;99.90;;;;;;4938416;29;20207;-79
2023/10/05 09:37:06;;;;;;;11.23;5.03;;;16.50;99.90;;;;;;4935415;29;20262;-79
2023/10/05 09:39:42;;;;;;;10.82;4.70;;;16.60;99.90;;;;;;4939615;29;20227;-79
2023/10/05 09:42:16;;;;;;;11.13;4.97;;;16.70;99.90;;;;;;4930105;29;20211;-79
2023/10/05 09:44:57;;;;;;;10.40;4.68;;;16.40;99.90;;;;;;4932713;29;20215;-80
2023/10/05 09:47:26;;;;;;;8.18;4.47;;;16.50;99.90;;;;;;4930955;29;20231;-79
2023/10/05 09:49:58;;;;;;;12.60;4.53;;;16.50;99.90;;;;;;4933823;29;20258;-78
2023/10/05 09:52:31;;;;;;;8.57;3.72;;;16.70;99.90;;;;;;4936221;29;20213;-79
2023/10/05 09:54:59;;;;;;;11.02;4.15;;;16.70;99.90;;;;;;4940636;29;20686;-78
2023/10/05 09:57:28;;;;;;;6.60;3.72;;;16.90;99.90;;;;;;4929594;29;20321;-79
2023/10/05 10:00:09;;;;;;;6.00;3.60;;;17.10;99.90;;;;;;4936283;29;20234;-79
2023/10/05 10:02:41;;;;;;;9.43;3.70;;;17.10;99.90;;;;;;4935819;29;20581;-80
2023/10/05 10:05:26;;;;;;;9.25;3.78;;;17.10;99.90;;;;;;4935987;29;20293;-79
2023/10/05 10:07:55;;;;;;;7.53;3.80;;;17.20;99.90;;;;;;4940284;29;20754;-79
2023/10/05 10:10:25;;;;;;;6.32;3.38;;;17.10;99.90;;;;;;4939679;29;20663;-80
2023/10/05 10:12:54;;;;;;;14.93;4.38;;;17.10;99.90;;;;;;4943999;29;20207;-78
2023/10/05 10:15:28;;;;;;;8.07;3.60;;;17.20;99.90;;;;;;4940701;29;20206;-78
2023/10/05 10:18:13;;;;;;;7.68;3.90;;;17.40;99.90;;;;;;4938518;29;20297;-78
2023/10/05 10:20:45;;;;;;;8.65;3.70;;;17.60;99.90;;;;;;4942916;29;20233;-78
2023/10/05 10:23:15;;;;;;;8.50;3.25;;;17.70;99.90;;;;;;4937624;29;20271;-78
2023/10/05 10:25:42;;;;;;;5.88;2.83;;;17.60;99.90;;;;;;4936808;29;20208;-79
2023/10/05 10:28:20;;;;;;;7.35;3.30;;;17.70;99.90;;;;;;4942863;29;20298;-78
2023/10/05 10:31:17;;;;;;;11.82;3.33;;;17.70;99.90;;;;;;4934659;29;20211;-79
2023/10/05 10:33:49;;;;;;;12.48;3.58;;;17.60;99.90;;;;;;4940848;29;20232;-77
2023/10/05 10:36:19;;;;;;;9.00;3.00;;;17.50;99.90;;;;;;4944453;29;20226;-79
2023/10/05 10:38:49;;;;;;;6.85;3.40;;;17.50;99.90;;;;;;4940588;29;20235;-79
2023/10/05 10:41:17;;;;;;;8.00;2.85;;;17.50;99.90;;;;;;4937002;29;20724;-79
2023/10/05 10:43:52;;;;;;;6.55;2.72;;;17.40;99.90;;;;;;4936316;29;20215;-79
2023/10/05 10:46:28;;;;;;;7.18;2.90;;;17.30;99.90;;;;;;4943252;29;20210;-79
2023/10/05 10:49:00;;;;;;;8.10;2.85;;;17.20;99.90;;;;;;4936589;29;20278;-79
2023/10/05 10:51:31;;;;;;;6.53;2.60;;;17.10;99.90;;;;;;4941680;29;20203;-79
2023/10/05 10:54:00;;;;;;;9.20;2.97;;;17.20;99.90;;;;;;4941842;29;20314;-80
2023/10/05 10:56:34;;;;;;;6.35;2.88;;;17.10;99.90;;;;;;4940304;29;20352;-79
2023/10/05 10:59:11;;;;;;;7.95;2.85;;;17.20;99.90;;;;;;4937899;29;20337;-78
2023/10/05 11:01:43;;;;;;;7.63;2.80;;;17.30;99.90;;;;;;4941318;29;20681;-79
2023/10/05 11:04:25;;;;;;;10.45;3.63;;;17.40;99.90;;;;;;4933239;29;20199;-80
2023/10/05 11:07:05;;;;;;;16.42;3.30;;;17.20;99.90;;;;;;4943428;29;20370;-80
2023/10/05 11:09:36;;;;;;;9.95;2.88;;;17.30;99.90;;;;;;4933709;29;20298;-80
2023/10/05 11:12:11;;;;;;;7.70;2.50;;;17.30;99.90;;;;;;4944241;29;20297;-79
2023/10/05 11:14:43;;;;;;;6.53;2.63;;;17.40;99.90;;;;;;4938055;29;20588;-80
2023/10/05 11:17:31;;;;;;;7.53;3.00;;;17.20;99.90;;;;;;4941323;29;20227;-79
2023/10/05 11:20:17;;;;;;;6.72;2.72;;;17.20;99.90;;;;;;4937727;29;20239;-80
2023/10/05 11:22:44;;;;;;;9.18;2.92;;;17.10;99.90;;;;;;4939883;29;20207;-80
2023/10/05 11:25:23;;;;;;;6.13;2.67;;;17.10;99.90;;;;;;4946262;29;20298;-79
2023/10/05 11:27:56;;;;;;;8.55;2.75;;;17.10;99.90;;;;;;4939349;29;20200;-79
2023/10/05 11:30:41;;;;;;;6.38;2.60;;;17.00;99.90;;;;;;4938152;29;20663;-79
2023/10/05 11:33:15;;;;;;;11.35;3.10;;;17.00;99.90;;;;;;4937491;29;20203;-80
2023/10/05 11:35:48;;;;;;;7.68;3.15;;;17.00;99.90;;;;;;4943356;29;20234;-79
2023/10/05 11:38:16;;;;;;;8.20;2.45;;;17.10;99.90;;;;;;4937524;29;20223;-81
2023/10/05 11:40:49;;;;;;;10.70;3.38;;;17.10;99.90;;;;;;4943737;29;20211;-80
2023/10/05 11:43:20;;;;;;;7.35;2.92;;;17.20;99.90;;;;;;4940264;29;20277;-80
2023/10/05 11:45:59;;;;;;;4.22;2.13;;;17.20;99.90;;;;;;4933538;29;20204;-79
2023/10/05 11:48:40;;;;;;;5.45;2.38;;;17.20;99.90;;;;;;4937172;29;20299;-79
2023/10/05 11:51:10;;;;;;;7.13;2.80;;;17.20;99.90;;;;;;4937616;29;20199;-79
2023/10/05 11:53:37;;;;;;;8.75;2.63;;;17.10;99.90;;;;;;4935002;29;20204;-79
2023/10/05 11:56:05;;;;;;;11.13;2.85;;;17.20;99.90;;;;;;4939605;29;20776;-79
2023/10/05 11:58:36;;;;;;;4.70;2.53;;;17.20;99.90;;;;;;4939958;29;20638;-79
2023/10/05 12:01:05;;;;;;;6.60;2.40;;;17.30;99.90;;;;;;4939493;29;20214;-80
2023/10/05 12:03:32;;;;;;;9.10;3.03;;;17.40;99.90;;;;;;4943998;29;20227;-79
2023/10/05 12:06:00;;;;;;;8.05;3.25;;;17.40;99.90;;;;;;4934278;29;20211;-79
2023/10/05 12:08:28;;;;;;;5.88;2.45;;;17.40;99.90;;;;;;4938294;29;20286;-79
2023/10/05 12:10:58;;;;;;;7.30;2.55;;;17.50;99.90;;;;;;4937123;29;20199;-79
2023/10/05 12:13:25;;;;;;;7.55;2.47;;;17.50;99.90;;;;;;4933801;29;20211;-79
2023/10/05 12:15:52;;;;;;;10.63;3.03;;;17.50;99.90;;;;;;4935890;29;20210;-79
2023/10/05 12:18:23;;;;;;;6.75;2.50;;;17.40;99.90;;;;;;4935553;29;20238;-81
2023/10/05 12:20:50;;;;;;;8.75;2.97;;;17.40;99.90;;;;;;4931027;29;20204;-80
2023/10/05 12:23:17;;;;;;;7.13;2.50;;;17.60;99.90;;;;;;4940749;29;20209;-84
2023/10/05 12:25:45;;;;;;;7.35;2.70;;;17.60;99.90;;;;;;4929711;29;20211;-80
2023/10/05 12:28:13;;;;;;;10.00;3.25;;;17.50;99.90;;;;;;4940090;29;20215;-78
2023/10/05 12:30:44;;;;;;;8.95;3.05;;;17.40;99.90;;;;;;4939448;29;20206;-80
2023/10/05 12:33:11;;;;;;;6.72;2.33;;;17.40;99.90;;;;;;4927670;29;20254;-80
2023/10/05 12:35:39;;;;;;;6.35;2.60;;;17.40;99.90;;;;;;4942436;29;20719;-79
2023/10/05 12:38:09;;;;;;;6.50;2.90;;;17.40;99.90;;;;;;4928162;29;20726;-81
2023/10/05 12:40:40;;;;;;;5.75;2.88;;;17.50;99.90;;;;;;4936018;29;20204;-79
2023/10/05 12:43:09;;;;;;;7.50;2.95;;;17.70;99.90;;;;;;4943373;29;20283;-78
2023/10/05 12:45:36;;;;;;;8.20;3.20;;;17.70;99.90;;;;;;4940130;29;20586;-79
2023/10/05 12:48:04;;;;;;;9.23;2.95;;;17.70;99.90;;;;;;4940162;29;20222;-79
2023/10/05 12:50:31;;;;;;;7.03;2.70;;;17.50;99.90;;;;;;4942252;29;20250;-79
2023/10/05 12:52:59;;;;;;;8.13;3.13;;;17.50;99.90;;;;;;4938098;29;20207;-79
2023/10/05 12:55:28;;;;;;;6.55;2.65;;;17.40;99.90;;;;;;4938344;29;20203;-78